sensor_id;sensor_type;location;lat;lon;timestamp;temperature;humidity
612;DHT22;293;53.888;11.464;2023-11-21T00:01:19;8.10;99.90
612;DHT22;293;53.888;11.464;2023-11-21T00:03:46;8.10;99.90
612;DHT22;293;53.888;11.464;2023-11-21T00:06:13;8.10;99.90
612;DHT22;293;53.888;11.464;2023-11-21T00:08:40;8.10;99.90
612;DHT22;293;53.888;11.464;2023-11-21T00:11:08;8.10;99.90
612;DHT22;293;53.888;11.464;2023-11-21T00:13:35;8.10;99.90
612;DHT22;293;53.888;11.464;2023-11-21T00:16:03;8.10;99.90
612;DHT22;293;53.888;11.464;2023-11-21T00:18:30;8.10;99.90
612;DHT22;293;53.888;11.464;2023-11-21T00:20:57;8.20;99.90
612;DHT22;293;53.888;11.464;2023-11-21T00:23:24;8.20;99.90
612;DHT22;293;53.888;11.464;2023-11-21T00:25:55;8.20;99.90
612;DHT22;293;53.888;11.464;2023-11-21T00:28:30;8.20;99.90
612;DHT22;293;53.888;11.464;2023-11-21T00:30:58;8.20;99.90
612;DHT22;293;53.888;11.464;2023-11-21T00:33:24;8.30;99.90
612;DHT22;293;53.888;11.464;2023-11-21T00:35:52;8.20;99.90
612;DHT22;293;53.888;11.464;2023-11-21T00:38:19;8.20;99.90
612;DHT22;293;53.888;11.464;2023-11-21T00:40:46;8.20;99.90
612;DHT22;293;53.888;11.464;2023-11-21T00:43:13;8.20;99.90
612;DHT22;293;53.888;11.464;2023-11-21T00:45:42;8.20;99.90
612;DHT22;293;53.888;11.464;2023-11-21T00:48:09;8.20;99.90
612;DHT22;293;53.888;11.464;2023-11-21T00:50:35;8.10;99.90
612;DHT22;293;53.888;11.464;2023-11-21T00:53:02;8.10;99.90
612;DHT22;293;53.888;11.464;2023-11-21T00:55:29;8.10;99.90
612;DHT22;293;53.888;11.464;2023-11-21T00:57:57;8.10;99.90
612;DHT22;293;53.888;11.464;2023-11-21T01:00:24;8.10;99.90
612;DHT22;293;53.888;11.464;2023-11-21T01:02:52;8.10;99.90
612;DHT22;293;53.888;11.464;2023-11-21T01:05:19;8.10;99.90
612;DHT22;293;53.888;11.464;2023-11-21T01:07:46;8.10;99.90
612;DHT22;293;53.888;11.464;2023-11-21T01:10:13;8.10;99.90
612;DHT22;293;53.888;11.464;2023-11-21T01:12:40;8.10;99.90
612;DHT22;293;53.888;11.464;2023-11-21T01:15:07;8.10;99.90
612;DHT22;293;53.888;11.464;2023-11-21T01:17:34;8.10;99.90
612;DHT22;293;53.888;11.464;2023-11-21T01:20:03;8.10;99.90
612;DHT22;293;53.888;11.464;2023-11-21T01:22:36;8.10;99.90
612;DHT22;293;53.888;11.464;2023-11-21T01:25:03;8.00;99.90
612;DHT22;293;53.888;11.464;2023-11-21T01:27:32;8.10;99.90
612;DHT22;293;53.888;11.464;2023-11-21T01:29:59;8.00;99.90
612;DHT22;293;53.888;11.464;2023-11-21T01:32:26;8.10;99.90
612;DHT22;293;53.888;11.464;2023-11-21T01:34:54;8.10;99.90
612;DHT22;293;53.888;11.464;2023-11-21T01:37:23;8.10;99.90
612;DHT22;293;53.888;11.464;2023-11-21T01:39:53;8.10;99.90
612;DHT22;293;53.888;11.464;2023-11-21T01:42:20;8.10;99.90
612;DHT22;293;53.888;11.464;2023-11-21T01:44:47;8.10;99.90
612;DHT22;293;53.888;11.464;2023-11-21T01:47:14;8.10;99.90
612;DHT22;293;53.888;11.464;2023-11-21T01:49:44;8.20;99.90
612;DHT22;293;53.888;11.464;2023-11-21T01:52:12;8.20;99.90
612;DHT22;293;53.888;11.464;2023-11-21T01:54:41;8.20;99.90
612;DHT22;293;53.888;11.464;2023-11-21T01:57:08;8.10;99.90
612;DHT22;293;53.888;11.464;2023-11-21T01:59:36;8.20;99.90
612;DHT22;293;53.888;11.464;2023-11-21T02:02:03;8.10;99.90
612;DHT22;293;53.888;11.464;2023-11-21T02:04:32;8.10;99.90
612;DHT22;293;53.888;11.464;2023-11-21T02:06:59;8.10;99.90
612;DHT22;293;53.888;11.464;2023-11-21T02:09:27;8.10;99.90
612;DHT22;293;53.888;11.464;2023-11-21T02:11:56;8.10;99.90
612;DHT22;293;53.888;11.464;2023-11-21T02:14:24;8.00;99.90
612;DHT22;293;53.888;11.464;2023-11-21T02:16:52;7.90;99.90
612;DHT22;293;53.888;11.464;2023-11-21T02:19:20;7.90;99.90
612;DHT22;293;53.888;11.464;2023-11-21T02:21:49;7.90;99.90
612;DHT22;293;53.888;11.464;2023-11-21T02:24:19;7.90;99.90
612;DHT22;293;53.888;11.464;2023-11-21T02:26:47;7.90;99.90
612;DHT22;293;53.888;11.464;2023-11-21T02:29:14;7.90;99.90
612;DHT22;293;53.888;11.464;2023-11-21T02:31:44;7.90;99.90
612;DHT22;293;53.888;11.464;2023-11-21T02:34:14;7.90;99.90
612;DHT22;293;53.888;11.464;2023-11-21T02:36:41;7.80;99.90
612;DHT22;293;53.888;11.464;2023-11-21T02:39:09;7.80;99.90
612;DHT22;293;53.888;11.464;2023-11-21T02:41:38;7.80;99.90
612;DHT22;293;53.888;11.464;2023-11-21T02:44:05;7.70;99.90
612;DHT22;293;53.888;11.464;2023-11-21T02:46:33;7.70;99.90
612;DHT22;293;53.888;11.464;2023-11-21T02:49:00;7.70;99.90
612;DHT22;293;53.888;11.464;2023-11-21T02:51:27;7.70;99.90
612;DHT22;293;53.888;11.464;2023-11-21T02:53:54;7.70;99.90
612;DHT22;293;53.888;11.464;2023-11-21T02:56:24;7.70;99.90
612;DHT22;293;53.888;11.464;2023-11-21T02:58:52;7.70;99.90
612;DHT22;293;53.888;11.464;2023-11-21T03:01:19;7.70;99.90
612;DHT22;293;53.888;11.464;2023-11-21T03:03:46;7.70;99.90
612;DHT22;293;53.888;11.464;2023-11-21T03:06:13;7.70;99.90
612;DHT22;293;53.888;11.464;2023-11-21T03:08:40;7.70;99.90
612;DHT22;293;53.888;11.464;2023-11-21T03:11:07;7.80;99.90
612;DHT22;293;53.888;11.464;2023-11-21T03:13:34;7.80;99.90
612;DHT22;293;53.888;11.464;2023-11-21T03:16:03;7.80;99.90
612;DHT22;293;53.888;11.464;2023-11-21T03:18:30;7.80;99.90
612;DHT22;293;53.888;11.464;2023-11-21T03:20:57;7.90;99.90
612;DHT22;293;53.888;11.464;2023-11-21T03:23:23;7.90;99.90
612;DHT22;293;53.888;11.464;2023-11-21T03:25:50;7.80;99.90
612;DHT22;293;53.888;11.464;2023-11-21T03:28:17;7.80;99.90
612;DHT22;293;53.888;11.464;2023-11-21T03:30:44;7.80;99.90
612;DHT22;293;53.888;11.464;2023-11-21T03:33:12;7.80;99.90
612;DHT22;293;53.888;11.464;2023-11-21T03:35:39;7.90;99.90
612;DHT22;293;53.888;11.464;2023-11-21T03:38:07;7.80;99.90
612;DHT22;293;53.888;11.464;2023-11-21T03:40:34;7.80;99.90
612;DHT22;293;53.888;11.464;2023-11-21T03:43:01;7.80;99.90
612;DHT22;293;53.888;11.464;2023-11-21T03:45:28;7.70;99.90
612;DHT22;293;53.888;11.464;2023-11-21T03:47:55;7.80;99.90
612;DHT22;293;53.888;11.464;2023-11-21T03:50:23;7.70;99.90
612;DHT22;293;53.888;11.464;2023-11-21T03:52:50;7.70;99.90
612;DHT22;293;53.888;11.464;2023-11-21T03:55:17;7.80;99.90
612;DHT22;293;53.888;11.464;2023-11-21T03:57:44;7.80;99.90
612;DHT22;293;53.888;11.464;2023-11-21T04:00:11;7.80;99.90
612;DHT22;293;53.888;11.464;2023-11-21T04:02:38;7.80;99.90
612;DHT22;293;53.888;11.464;2023-11-21T04:05:06;7.80;99.90
612;DHT22;293;53.888;11.464;2023-11-21T04:07:35;7.80;99.90
612;DHT22;293;53.888;11.464;2023-11-21T04:10:03;7.80;99.90
612;DHT22;293;53.888;11.464;2023-11-21T04:12:33;7.80;99.90
612;DHT22;293;53.888;11.464;2023-11-21T04:15:00;7.80;99.90
612;DHT22;293;53.888;11.464;2023-11-21T04:17:26;7.80;99.90
612;DHT22;293;53.888;11.464;2023-11-21T04:19:53;7.80;99.90
612;DHT22;293;53.888;11.464;2023-11-21T04:22:20;7.80;99.90
612;DHT22;293;53.888;11.464;2023-11-21T04:24:48;7.90;99.90
612;DHT22;293;53.888;11.464;2023-11-21T04:27:15;7.90;99.90
612;DHT22;293;53.888;11.464;2023-11-21T04:29:43;7.90;99.90
612;DHT22;293;53.888;11.464;2023-11-21T04:32:10;7.90;99.90
612;DHT22;293;53.888;11.464;2023-11-21T04:34:38;7.90;99.90
612;DHT22;293;53.888;11.464;2023-11-21T04:37:05;7.80;99.90
612;DHT22;293;53.888;11.464;2023-11-21T04:39:32;7.80;99.90
612;DHT22;293;53.888;11.464;2023-11-21T04:42:00;7.90;99.90
612;DHT22;293;53.888;11.464;2023-11-21T04:44:27;7.90;99.90
612;DHT22;293;53.888;11.464;2023-11-21T04:46:53;7.80;99.90
612;DHT22;293;53.888;11.464;2023-11-21T04:49:21;7.80;99.90
612;DHT22;293;53.888;11.464;2023-11-21T04:51:48;7.80;99.90
612;DHT22;293;53.888;11.464;2023-11-21T04:54:14;7.80;99.90
612;DHT22;293;53.888;11.464;2023-11-21T04:56:41;7.80;99.90
612;DHT22;293;53.888;11.464;2023-11-21T04:59:10;7.80;99.90
612;DHT22;293;53.888;11.464;2023-11-21T05:01:36;7.70;99.90
612;DHT22;293;53.888;11.464;2023-11-21T05:04:04;7.70;99.90
612;DHT22;293;53.888;11.464;2023-11-21T05:06:31;7.70;99.90
612;DHT22;293;53.888;11.464;2023-11-21T05:08:58;7.70;99.90
612;DHT22;293;53.888;11.464;2023-11-21T05:11:25;7.70;99.90
612;DHT22;293;53.888;11.464;2023-11-21T05:13:52;7.70;99.90
612;DHT22;293;53.888;11.464;2023-11-21T05:16:22;7.70;99.90
612;DHT22;293;53.888;11.464;2023-11-21T05:18:49;7.70;99.90
612;DHT22;293;53.888;11.464;2023-11-21T05:21:16;7.70;99.90
612;DHT22;293;53.888;11.464;2023-11-21T05:23:46;7.70;99.90
612;DHT22;293;53.888;11.464;2023-11-21T05:26:13;7.70;99.90
612;DHT22;293;53.888;11.464;2023-11-21T05:28:40;7.70;99.90
612;DHT22;293;53.888;11.464;2023-11-21T05:31:06;7.70;99.90
612;DHT22;293;53.888;11.464;2023-11-21T05:33:35;7.70;99.90
612;DHT22;293;53.888;11.464;2023-11-21T05:36:02;7.70;99.90
612;DHT22;293;53.888;11.464;2023-11-21T05:38:29;7.70;99.90
612;DHT22;293;53.888;11.464;2023-11-21T05:40:56;7.60;99.90
612;DHT22;293;53.888;11.464;2023-11-21T05:43:24;7.50;99.90
612;DHT22;293;53.888;11.464;2023-11-21T05:45:51;7.50;99.90
612;DHT22;293;53.888;11.464;2023-11-21T05:48:17;7.40;99.90
612;DHT22;293;53.888;11.464;2023-11-21T05:50:46;7.40;99.90
612;DHT22;293;53.888;11.464;2023-11-21T05:53:14;7.50;99.90
612;DHT22;293;53.888;11.464;2023-11-21T05:55:41;7.50;99.90
612;DHT22;293;53.888;11.464;2023-11-21T05:58:08;7.40;99.90
612;DHT22;293;53.888;11.464;2023-11-21T06:00:35;7.50;99.90
612;DHT22;293;53.888;11.464;2023-11-21T06:03:02;7.50;99.90
612;DHT22;293;53.888;11.464;2023-11-21T06:05:32;7.50;99.90
612;DHT22;293;53.888;11.464;2023-11-21T06:08:00;7.50;99.90
612;DHT22;293;53.888;11.464;2023-11-21T06:10:27;7.50;99.90
612;DHT22;293;53.888;11.464;2023-11-21T06:12:54;7.50;99.90
612;DHT22;293;53.888;11.464;2023-11-21T06:15:23;7.50;99.90
612;DHT22;293;53.888;11.464;2023-11-21T06:17:50;7.50;99.90
612;DHT22;293;53.888;11.464;2023-11-21T06:20:19;7.60;99.90
612;DHT22;293;53.888;11.464;2023-11-21T06:22:47;7.50;99.90
612;DHT22;293;53.888;11.464;2023-11-21T06:25:15;7.50;99.90
612;DHT22;293;53.888;11.464;2023-11-21T06:27:44;7.50;99.90
612;DHT22;293;53.888;11.464;2023-11-21T06:30:12;7.50;99.90
612;DHT22;293;53.888;11.464;2023-11-21T06:32:41;7.50;99.90
612;DHT22;293;53.888;11.464;2023-11-21T06:35:11;7.50;99.90
612;DHT22;293;53.888;11.464;2023-11-21T06:37:38;7.50;99.90
612;DHT22;293;53.888;11.464;2023-11-21T06:40:06;7.50;99.90
612;DHT22;293;53.888;11.464;2023-11-21T06:42:36;7.50;99.90
612;DHT22;293;53.888;11.464;2023-11-21T06:45:05;7.50;99.90
612;DHT22;293;53.888;11.464;2023-11-21T06:47:32;7.50;99.90
612;DHT22;293;53.888;11.464;2023-11-21T06:50:00;7.50;99.90
612;DHT22;293;53.888;11.464;2023-11-21T06:52:27;7.50;99.90
612;DHT22;293;53.888;11.464;2023-11-21T06:54:54;7.50;99.90
612;DHT22;293;53.888;11.464;2023-11-21T06:57:22;7.60;99.90
612;DHT22;293;53.888;11.464;2023-11-21T06:59:50;7.50;99.90
612;DHT22;293;53.888;11.464;2023-11-21T07:02:17;7.50;99.90
612;DHT22;293;53.888;11.464;2023-11-21T07:04:44;7.50;99.90
612;DHT22;293;53.888;11.464;2023-11-21T07:07:12;7.50;99.90
612;DHT22;293;53.888;11.464;2023-11-21T07:09:39;7.40;99.90
612;DHT22;293;53.888;11.464;2023-11-21T07:12:06;7.40;99.90
612;DHT22;293;53.888;11.464;2023-11-21T07:14:33;7.50;99.90
612;DHT22;293;53.888;11.464;2023-11-21T07:17:02;7.50;99.90
612;DHT22;293;53.888;11.464;2023-11-21T07:19:29;7.50;99.90
612;DHT22;293;53.888;11.464;2023-11-21T07:21:56;7.60;99.90
612;DHT22;293;53.888;11.464;2023-11-21T07:24:23;7.60;99.90
612;DHT22;293;53.888;11.464;2023-11-21T07:26:50;7.60;99.90
612;DHT22;293;53.888;11.464;2023-11-21T07:29:22;7.60;99.90
612;DHT22;293;53.888;11.464;2023-11-21T07:31:51;7.60;99.90
612;DHT22;293;53.888;11.464;2023-11-21T07:34:19;7.60;99.90
612;DHT22;293;53.888;11.464;2023-11-21T07:36:46;7.60;99.90
612;DHT22;293;53.888;11.464;2023-11-21T07:39:13;7.60;99.90
612;DHT22;293;53.888;11.464;2023-11-21T07:41:41;7.60;99.90
612;DHT22;293;53.888;11.464;2023-11-21T07:44:14;7.60;99.90
612;DHT22;293;53.888;11.464;2023-11-21T07:46:43;7.60;99.90
612;DHT22;293;53.888;11.464;2023-11-21T07:49:10;7.60;99.90
612;DHT22;293;53.888;11.464;2023-11-21T07:51:38;7.70;99.90
612;DHT22;293;53.888;11.464;2023-11-21T07:54:05;7.80;99.90
612;DHT22;293;53.888;11.464;2023-11-21T07:56:32;7.80;99.90
612;DHT22;293;53.888;11.464;2023-11-21T07:58:59;7.80;99.90
612;DHT22;293;53.888;11.464;2023-11-21T08:01:26;7.90;99.90
612;DHT22;293;53.888;11.464;2023-11-21T08:03:54;7.90;99.90
612;DHT22;293;53.888;11.464;2023-11-21T08:06:23;7.90;99.90
612;DHT22;293;53.888;11.464;2023-11-21T08:08:52;7.90;99.90
612;DHT22;293;53.888;11.464;2023-11-21T08:11:19;7.90;99.90
612;DHT22;293;53.888;11.464;2023-11-21T08:13:47;7.90;99.90
612;DHT22;293;53.888;11.464;2023-11-21T08:16:14;7.90;99.90
612;DHT22;293;53.888;11.464;2023-11-21T08:18:42;7.90;99.90
612;DHT22;293;53.888;11.464;2023-11-21T08:21:09;7.90;99.90
612;DHT22;293;53.888;11.464;2023-11-21T08:23:37;7.90;99.90
612;DHT22;293;53.888;11.464;2023-11-21T08:26:06;7.90;99.90
612;DHT22;293;53.888;11.464;2023-11-21T08:28:34;7.90;99.90
612;DHT22;293;53.888;11.464;2023-11-21T08:31:01;7.90;99.90
612;DHT22;293;53.888;11.464;2023-11-21T08:33:28;7.80;99.90
612;DHT22;293;53.888;11.464;2023-11-21T08:35:55;7.80;99.90
612;DHT22;293;53.888;11.464;2023-11-21T08:38:22;8.00;99.90
612;DHT22;293;53.888;11.464;2023-11-21T08:40:49;7.90;99.90
612;DHT22;293;53.888;11.464;2023-11-21T08:43:17;8.00;99.90
612;DHT22;293;53.888;11.464;2023-11-21T08:45:45;8.10;99.90
612;DHT22;293;53.888;11.464;2023-11-21T08:48:12;8.10;99.90
612;DHT22;293;53.888;11.464;2023-11-21T08:50:39;8.20;99.90
612;DHT22;293;53.888;11.464;2023-11-21T08:53:06;8.30;99.90
612;DHT22;293;53.888;11.464;2023-11-21T08:55:32;8.20;99.90
612;DHT22;293;53.888;11.464;2023-11-21T08:58:02;8.20;99.90
612;DHT22;293;53.888;11.464;2023-11-21T09:00:32;8.20;99.90
612;DHT22;293;53.888;11.464;2023-11-21T09:02:59;8.20;99.90
612;DHT22;293;53.888;11.464;2023-11-21T09:05:27;8.10;99.90
612;DHT22;293;53.888;11.464;2023-11-21T09:07:54;8.20;99.90
612;DHT22;293;53.888;11.464;2023-11-21T09:10:21;8.10;99.90
612;DHT22;293;53.888;11.464;2023-11-21T09:12:49;8.10;99.90
612;DHT22;293;53.888;11.464;2023-11-21T09:15:17;8.10;99.90
612;DHT22;293;53.888;11.464;2023-11-21T09:17:47;8.10;99.90
612;DHT22;293;53.888;11.464;2023-11-21T09:20:14;8.20;99.90
612;DHT22;293;53.888;11.464;2023-11-21T09:22:41;8.20;99.90
612;DHT22;293;53.888;11.464;2023-11-21T09:25:10;8.30;99.90
612;DHT22;293;53.888;11.464;2023-11-21T09:27:37;8.40;99.90
612;DHT22;293;53.888;11.464;2023-11-21T09:30:05;8.40;99.90
612;DHT22;293;53.888;11.464;2023-11-21T09:32:34;8.40;99.90
612;DHT22;293;53.888;11.464;2023-11-21T09:35:04;8.40;99.90
612;DHT22;293;53.888;11.464;2023-11-21T09:37:33;8.40;99.90
612;DHT22;293;53.888;11.464;2023-11-21T09:40:01;8.40;99.90
612;DHT22;293;53.888;11.464;2023-11-21T09:42:31;8.30;99.90
612;DHT22;293;53.888;11.464;2023-11-21T09:45:05;8.30;99.90
612;DHT22;293;53.888;11.464;2023-11-21T09:47:34;8.40;99.90
612;DHT22;293;53.888;11.464;2023-11-21T09:50:04;8.40;99.90
612;DHT22;293;53.888;11.464;2023-11-21T09:52:39;8.30;99.90
612;DHT22;293;53.888;11.464;2023-11-21T09:55:10;8.30;99.90
612;DHT22;293;53.888;11.464;2023-11-21T09:57:41;8.40;99.90
612;DHT22;293;53.888;11.464;2023-11-21T10:00:10;8.40;99.90
612;DHT22;293;53.888;11.464;2023-11-21T10:02:38;8.40;99.90
612;DHT22;293;53.888;11.464;2023-11-21T10:05:08;8.40;99.90
612;DHT22;293;53.888;11.464;2023-11-21T10:07:37;8.40;99.90
612;DHT22;293;53.888;11.464;2023-11-21T10:10:07;8.40;99.90
612;DHT22;293;53.888;11.464;2023-11-21T10:12:35;8.50;99.90
612;DHT22;293;53.888;11.464;2023-11-21T10:15:08;8.50;99.90
612;DHT22;293;53.888;11.464;2023-11-21T10:17:38;8.40;99.90
612;DHT22;293;53.888;11.464;2023-11-21T10:20:11;8.50;99.90
612;DHT22;293;53.888;11.464;2023-11-21T10:22:40;8.50;99.90
612;DHT22;293;53.888;11.464;2023-11-21T10:25:08;8.40;99.90
612;DHT22;293;53.888;11.464;2023-11-21T10:27:35;8.40;99.90
612;DHT22;293;53.888;11.464;2023-11-21T10:30:03;8.50;99.90
612;DHT22;293;53.888;11.464;2023-11-21T10:32:30;8.50;99.90
612;DHT22;293;53.888;11.464;2023-11-21T10:34:58;8.60;99.90
612;DHT22;293;53.888;11.464;2023-11-21T10:37:29;8.60;99.90
612;DHT22;293;53.888;11.464;2023-11-21T10:39:57;8.60;99.90
612;DHT22;293;53.888;11.464;2023-11-21T10:42:25;8.60;99.90
612;DHT22;293;53.888;11.464;2023-11-21T10:44:52;8.50;99.90
612;DHT22;293;53.888;11.464;2023-11-21T10:47:19;8.60;99.90
612;DHT22;293;53.888;11.464;2023-11-21T10:49:48;8.50;99.90
612;DHT22;293;53.888;11.464;2023-11-21T10:52:15;8.40;99.90
612;DHT22;293;53.888;11.464;2023-11-21T10:54:45;8.40;99.90
612;DHT22;293;53.888;11.464;2023-11-21T10:57:15;8.40;99.90
612;DHT22;293;53.888;11.464;2023-11-21T10:59:46;8.40;99.90
612;DHT22;293;53.888;11.464;2023-11-21T11:02:21;8.40;99.90
612;DHT22;293;53.888;11.464;2023-11-21T11:04:52;8.40;99.90
612;DHT22;293;53.888;11.464;2023-11-21T11:07:22;8.30;99.90
612;DHT22;293;53.888;11.464;2023-11-21T11:09:54;8.30;99.90
612;DHT22;293;53.888;11.464;2023-11-21T11:12:21;8.20;99.90
612;DHT22;293;53.888;11.464;2023-11-21T11:14:48;8.20;99.90
612;DHT22;293;53.888;11.464;2023-11-21T11:17:16;8.20;99.90
612;DHT22;293;53.888;11.464;2023-11-21T11:19:46;8.20;99.90
612;DHT22;293;53.888;11.464;2023-11-21T11:22:24;8.20;99.90
612;DHT22;293;53.888;11.464;2023-11-21T11:25:14;8.20;99.90
612;DHT22;293;53.888;11.464;2023-11-21T11:27:51;8.20;99.90
612;DHT22;293;53.888;11.464;2023-11-21T11:30:30;8.20;99.90
612;DHT22;293;53.888;11.464;2023-11-21T11:33:08;8.20;99.90
612;DHT22;293;53.888;11.464;2023-11-21T11:35:52;8.20;99.90
612;DHT22;293;53.888;11.464;2023-11-21T11:38:21;8.20;99.90
612;DHT22;293;53.888;11.464;2023-11-21T11:40:53;8.30;99.90
612;DHT22;293;53.888;11.464;2023-11-21T11:43:25;8.30;99.90
612;DHT22;293;53.888;11.464;2023-11-21T11:45:55;8.30;99.90
612;DHT22;293;53.888;11.464;2023-11-21T11:48:22;8.40;99.90
612;DHT22;293;53.888;11.464;2023-11-21T11:51:10;8.40;99.90
612;DHT22;293;53.888;11.464;2023-11-21T11:53:41;8.50;99.90
612;DHT22;293;53.888;11.464;2023-11-21T11:56:25;8.40;99.90
612;DHT22;293;53.888;11.464;2023-11-21T11:58:54;8.50;99.90
612;DHT22;293;53.888;11.464;2023-11-21T12:01:22;8.50;99.90
612;DHT22;293;53.888;11.464;2023-11-21T12:04:24;8.50;99.90
612;DHT22;293;53.888;11.464;2023-11-21T12:06:59;8.50;99.90
612;DHT22;293;53.888;11.464;2023-11-21T12:09:28;8.50;99.90
612;DHT22;293;53.888;11.464;2023-11-21T12:11:58;8.50;99.90
612;DHT22;293;53.888;11.464;2023-11-21T12:14:25;8.40;99.90
612;DHT22;293;53.888;11.464;2023-11-21T12:16:53;8.40;99.90
612;DHT22;293;53.888;11.464;2023-11-21T12:19:21;8.40;99.90
612;DHT22;293;53.888;11.464;2023-11-21T12:21:49;8.30;99.90
612;DHT22;293;53.888;11.464;2023-11-21T12:24:17;8.20;99.90
612;DHT22;293;53.888;11.464;2023-11-21T12:26:44;8.20;99.90
612;DHT22;293;53.888;11.464;2023-11-21T12:29:13;8.20;99.90
612;DHT22;293;53.888;11.464;2023-11-21T12:31:40;8.30;99.90
612;DHT22;293;53.888;11.464;2023-11-21T12:34:07;8.30;99.90
612;DHT22;293;53.888;11.464;2023-11-21T12:36:37;8.40;99.90
612;DHT22;293;53.888;11.464;2023-11-21T12:39:04;8.50;99.90
612;DHT22;293;53.888;11.464;2023-11-21T12:41:31;8.40;99.90
612;DHT22;293;53.888;11.464;2023-11-21T12:43:58;8.50;99.90
612;DHT22;293;53.888;11.464;2023-11-21T12:46:26;8.60;99.90
612;DHT22;293;53.888;11.464;2023-11-21T12:48:57;8.60;99.90
612;DHT22;293;53.888;11.464;2023-11-21T12:51:24;8.50;99.90
612;DHT22;293;53.888;11.464;2023-11-21T12:53:51;8.50;99.90
612;DHT22;293;53.888;11.464;2023-11-21T12:56:21;8.50;99.90
612;DHT22;293;53.888;11.464;2023-11-21T12:58:49;8.30;99.90
612;DHT22;293;53.888;11.464;2023-11-21T13:01:17;8.40;99.90
612;DHT22;293;53.888;11.464;2023-11-21T13:03:49;8.40;99.90
612;DHT22;293;53.888;11.464;2023-11-21T13:06:18;8.50;99.90
612;DHT22;293;53.888;11.464;2023-11-21T13:08:47;8.40;99.90
612;DHT22;293;53.888;11.464;2023-11-21T13:11:14;8.30;99.90
612;DHT22;293;53.888;11.464;2023-11-21T13:13:42;8.30;99.90
612;DHT22;293;53.888;11.464;2023-11-21T13:16:10;8.20;99.90
612;DHT22;293;53.888;11.464;2023-11-21T13:18:37;8.30;99.90
612;DHT22;293;53.888;11.464;2023-11-21T13:21:08;8.10;99.90
612;DHT22;293;53.888;11.464;2023-11-21T13:23:41;8.00;99.90
612;DHT22;293;53.888;11.464;2023-11-21T13:26:08;8.00;99.90
612;DHT22;293;53.888;11.464;2023-11-21T13:28:36;8.00;99.90
612;DHT22;293;53.888;11.464;2023-11-21T13:31:04;8.00;99.90
612;DHT22;293;53.888;11.464;2023-11-21T13:33:46;7.90;99.90
612;DHT22;293;53.888;11.464;2023-11-21T13:36:18;7.70;99.90
612;DHT22;293;53.888;11.464;2023-11-21T13:38:48;7.50;99.90
612;DHT22;293;53.888;11.464;2023-11-21T13:41:15;7.40;99.90
612;DHT22;293;53.888;11.464;2023-11-21T13:43:43;7.40;99.90
612;DHT22;293;53.888;11.464;2023-11-21T13:46:16;7.40;99.90
612;DHT22;293;53.888;11.464;2023-11-21T13:48:47;7.40;99.90
612;DHT22;293;53.888;11.464;2023-11-21T13:51:18;7.30;99.90
612;DHT22;293;53.888;11.464;2023-11-21T13:53:47;7.30;99.90
612;DHT22;293;53.888;11.464;2023-11-21T13:56:16;7.30;99.90
612;DHT22;293;53.888;11.464;2023-11-21T13:58:47;7.30;99.90
612;DHT22;293;53.888;11.464;2023-11-21T14:01:17;7.30;99.90
612;DHT22;293;53.888;11.464;2023-11-21T14:04:07;7.40;99.90
612;DHT22;293;53.888;11.464;2023-11-21T14:06:46;7.30;99.90
612;DHT22;293;53.888;11.464;2023-11-21T14:09:15;7.30;99.90
612;DHT22;293;53.888;11.464;2023-11-21T14:11:49;7.20;99.90
612;DHT22;293;53.888;11.464;2023-11-21T14:14:17;7.30;99.90
612;DHT22;293;53.888;11.464;2023-11-21T14:16:44;7.30;99.90
612;DHT22;293;53.888;11.464;2023-11-21T14:19:11;7.40;99.90
612;DHT22;293;53.888;11.464;2023-11-21T14:21:41;7.30;99.90
612;DHT22;293;53.888;11.464;2023-11-21T14:24:11;7.30;99.90
612;DHT22;293;53.888;11.464;2023-11-21T14:26:40;7.40;99.90
612;DHT22;293;53.888;11.464;2023-11-21T14:29:08;7.40;99.90
612;DHT22;293;53.888;11.464;2023-11-21T14:31:38;7.40;99.90
612;DHT22;293;53.888;11.464;2023-11-21T14:34:05;7.30;99.90
612;DHT22;293;53.888;11.464;2023-11-21T14:36:32;7.30;99.90
612;DHT22;293;53.888;11.464;2023-11-21T14:38:59;7.30;99.90
612;DHT22;293;53.888;11.464;2023-11-21T14:41:28;7.30;99.90
612;DHT22;293;53.888;11.464;2023-11-21T14:43:55;7.30;99.90
612;DHT22;293;53.888;11.464;2023-11-21T14:46:23;7.20;99.90
612;DHT22;293;53.888;11.464;2023-11-21T14:48:49;7.20;99.90
612;DHT22;293;53.888;11.464;2023-11-21T14:51:25;7.20;99.90
612;DHT22;293;53.888;11.464;2023-11-21T14:53:57;7.20;99.90
612;DHT22;293;53.888;11.464;2023-11-21T14:56:32;7.20;99.90
612;DHT22;293;53.888;11.464;2023-11-21T14:59:01;7.20;99.90
612;DHT22;293;53.888;11.464;2023-11-21T15:01:32;7.20;99.90
612;DHT22;293;53.888;11.464;2023-11-21T15:04:10;7.10;99.90
612;DHT22;293;53.888;11.464;2023-11-21T15:06:46;7.00;99.90
612;DHT22;293;53.888;11.464;2023-11-21T15:09:14;6.90;99.90
612;DHT22;293;53.888;11.464;2023-11-21T15:11:55;6.80;99.90
612;DHT22;293;53.888;11.464;2023-11-21T15:14:28;6.80;99.90
612;DHT22;293;53.888;11.464;2023-11-21T15:16:57;6.70;99.90
612;DHT22;293;53.888;11.464;2023-11-21T15:19:25;6.60;99.90
612;DHT22;293;53.888;11.464;2023-11-21T15:21:53;6.60;99.90
612;DHT22;293;53.888;11.464;2023-11-21T15:24:20;6.60;99.90
612;DHT22;293;53.888;11.464;2023-11-21T15:26:47;6.60;99.90
612;DHT22;293;53.888;11.464;2023-11-21T15:29:15;6.50;99.90
612;DHT22;293;53.888;11.464;2023-11-21T15:31:42;6.50;99.90
612;DHT22;293;53.888;11.464;2023-11-21T15:34:14;6.50;99.90
612;DHT22;293;53.888;11.464;2023-11-21T15:36:41;6.50;99.90
612;DHT22;293;53.888;11.464;2023-11-21T15:39:07;6.40;99.90
612;DHT22;293;53.888;11.464;2023-11-21T15:41:35;6.50;99.90
612;DHT22;293;53.888;11.464;2023-11-21T15:44:04;6.40;99.90
612;DHT22;293;53.888;11.464;2023-11-21T15:46:34;6.40;99.90
612;DHT22;293;53.888;11.464;2023-11-21T15:49:01;6.40;99.90
612;DHT22;293;53.888;11.464;2023-11-21T15:51:36;6.40;99.90
612;DHT22;293;53.888;11.464;2023-11-21T15:54:03;6.40;99.90
612;DHT22;293;53.888;11.464;2023-11-21T15:56:30;6.50;99.90
612;DHT22;293;53.888;11.464;2023-11-21T15:58:59;6.40;99.90
612;DHT22;293;53.888;11.464;2023-11-21T16:01:26;6.40;99.90
612;DHT22;293;53.888;11.464;2023-11-21T16:03:54;6.40;99.90
612;DHT22;293;53.888;11.464;2023-11-21T16:06:21;6.40;99.90
612;DHT22;293;53.888;11.464;2023-11-21T16:08:48;6.50;99.90
612;DHT22;293;53.888;11.464;2023-11-21T16:11:15;6.50;99.90
612;DHT22;293;53.888;11.464;2023-11-21T16:13:42;6.50;99.90
612;DHT22;293;53.888;11.464;2023-11-21T16:16:09;6.50;99.90
612;DHT22;293;53.888;11.464;2023-11-21T16:18:36;6.50;99.90
612;DHT22;293;53.888;11.464;2023-11-21T16:21:05;6.50;99.90
612;DHT22;293;53.888;11.464;2023-11-21T16:23:34;6.50;99.90
612;DHT22;293;53.888;11.464;2023-11-21T16:26:03;6.50;99.90
612;DHT22;293;53.888;11.464;2023-11-21T16:28:30;6.50;99.90
612;DHT22;293;53.888;11.464;2023-11-21T16:30:57;6.50;99.90
612;DHT22;293;53.888;11.464;2023-11-21T16:33:24;6.50;99.90
612;DHT22;293;53.888;11.464;2023-11-21T16:35:51;6.50;99.90
612;DHT22;293;53.888;11.464;2023-11-21T16:38:19;6.40;99.90
612;DHT22;293;53.888;11.464;2023-11-21T16:40:46;6.40;99.90
612;DHT22;293;53.888;11.464;2023-11-21T16:43:13;6.50;99.90